createdAt,value
2019-01-19T00:00:51.619Z,1019.08
2019-01-19T00:01:51.583Z,1019.03
2019-01-19T00:02:51.546Z,1019.04
2019-01-19T00:03:51.509Z,1019.01
2019-01-19T00:04:51.471Z,1019.00
2019-01-19T00:05:51.433Z,1018.99
2019-01-19T00:06:51.398Z,1019.03
2019-01-19T00:07:51.358Z,1018.98
2019-01-19T00:08:51.322Z,1018.99
2019-01-19T00:09:51.285Z,1019.02
2019-01-19T00:10:51.248Z,1019.03
2019-01-19T00:11:51.210Z,1019.03
2019-01-19T00:12:51.172Z,1019.06
2019-01-19T00:13:51.138Z,1019.02
2019-01-19T00:14:51.098Z,1019.06
2019-01-19T00:15:51.060Z,1019.07
2019-01-19T00:16:51.023Z,1019.06
2019-01-19T00:17:50.988Z,1019.03
2019-01-19T00:18:50.947Z,1019.01
2019-01-19T00:19:50.914Z,1019.03
2019-01-19T00:20:50.873Z,1019.01
2019-01-19T00:21:50.835Z,1019.03
2019-01-19T00:22:50.797Z,1019.05
2019-01-19T00:23:50.761Z,1019.05
2019-01-19T00:24:50.723Z,1019.08
2019-01-19T00:25:50.688Z,1019.10
2019-01-19T00:26:50.649Z,1019.09
2019-01-19T00:27:50.611Z,1019.06
2019-01-19T00:28:50.572Z,1019.07
2019-01-19T00:29:50.534Z,1019.10
2019-01-19T00:30:50.497Z,1019.10
2019-01-19T00:31:50.460Z,1019.08
2019-01-19T00:32:50.423Z,1019.09
2019-01-19T00:33:50.554Z,1019.08
2019-01-19T00:34:50.347Z,1019.10
2019-01-19T00:35:50.318Z,1019.09
2019-01-19T00:36:50.273Z,1019.13
2019-01-19T00:37:50.234Z,1019.12
2019-01-19T00:38:50.196Z,1019.07
2019-01-19T00:39:50.160Z,1019.08
2019-01-19T00:40:50.123Z,1019.10
2019-01-19T00:41:50.084Z,1019.09
2019-01-19T00:42:50.046Z,1019.12
2019-01-19T00:43:50.008Z,1019.14
2019-01-19T00:44:49.971Z,1019.08
2019-01-19T00:45:49.934Z,1019.14
2019-01-19T00:46:49.895Z,1019.10
2019-01-19T00:47:49.858Z,1019.12
2019-01-19T00:48:49.822Z,1019.13
2019-01-19T00:49:49.783Z,1019.18
2019-01-19T00:50:49.746Z,1019.16
2019-01-19T00:51:49.708Z,1019.15
2019-01-19T00:52:49.673Z,1019.10
2019-01-19T00:53:49.631Z,1019.13
2019-01-19T00:54:49.593Z,1019.14
2019-01-19T00:55:49.560Z,1019.16
2019-01-19T00:56:49.518Z,1019.12
2019-01-19T00:57:49.481Z,1019.16
2019-01-19T00:58:49.442Z,1019.13
2019-01-19T00:59:49.410Z,1019.11
2019-01-19T01:00:49.367Z,1019.14
2019-01-19T01:01:49.330Z,1019.11
2019-01-19T01:02:49.290Z,1019.11
2019-01-19T01:03:49.296Z,1019.09
2019-01-19T01:04:49.216Z,1019.11
2019-01-19T01:05:49.179Z,1019.13
2019-01-19T01:06:49.142Z,1019.14
2019-01-19T01:07:49.107Z,1019.15
2019-01-19T01:08:49.069Z,1019.15
2019-01-19T01:09:49.027Z,1019.09
2019-01-19T01:10:48.989Z,1019.13
2019-01-19T01:11:48.953Z,1019.08
2019-01-19T01:12:48.913Z,1019.10
2019-01-19T01:13:48.876Z,1019.12
2019-01-19T01:14:48.839Z,1019.08
2019-01-19T01:15:48.799Z,1019.10
2019-01-19T01:16:48.765Z,1019.14
2019-01-19T01:17:48.724Z,1019.15
2019-01-19T01:18:48.686Z,1019.17
2019-01-19T01:19:48.647Z,1019.14
2019-01-19T01:20:48.611Z,1019.17
2019-01-19T01:21:48.576Z,1019.18
2019-01-19T01:22:48.538Z,1019.16
2019-01-19T01:23:48.496Z,1019.16
2019-01-19T01:24:48.460Z,1019.15
2019-01-19T01:25:48.420Z,1019.14
2019-01-19T01:26:48.380Z,1019.16
2019-01-19T01:27:48.344Z,1019.13
2019-01-19T01:28:48.306Z,1019.16
2019-01-19T01:29:48.268Z,1019.11
2019-01-19T01:30:48.230Z,1019.12
2019-01-19T01:31:48.191Z,1019.10
2019-01-19T01:32:48.154Z,1019.11
2019-01-19T01:33:48.116Z,1019.08
2019-01-19T01:34:48.077Z,1019.11
2019-01-19T01:35:48.040Z,1019.11
2019-01-19T01:36:48.001Z,1019.13
2019-01-19T01:37:47.964Z,1019.11
2019-01-19T01:38:47.926Z,1019.11
2019-01-19T01:39:47.887Z,1019.12
2019-01-19T01:40:47.850Z,1019.14
2019-01-19T01:41:47.811Z,1019.13
2019-01-19T01:42:47.772Z,1019.13
2019-01-19T01:43:47.736Z,1019.16
2019-01-19T01:44:47.697Z,1019.16
2019-01-19T01:45:47.660Z,1019.16
2019-01-19T01:46:47.621Z,1019.13
2019-01-19T01:47:47.582Z,1019.14
2019-01-19T01:48:47.543Z,1019.16
2019-01-19T01:49:47.508Z,1019.14
2019-01-19T01:50:47.467Z,1019.13
2019-01-19T01:51:47.429Z,1019.09
2019-01-19T01:52:47.391Z,1019.10
2019-01-19T01:53:47.353Z,1019.10
2019-01-19T01:54:47.324Z,1019.08
2019-01-19T01:55:47.277Z,1019.12
2019-01-19T01:56:47.239Z,1019.11
2019-01-19T01:57:47.200Z,1019.07
2019-01-19T01:58:47.160Z,1019.10
2019-01-19T01:59:47.122Z,1019.06
2019-01-19T02:00:47.085Z,1019.08
2019-01-19T02:01:47.046Z,1019.09
2019-01-19T02:02:47.008Z,1019.07
2019-01-19T02:03:46.968Z,1019.07
2019-01-19T02:04:46.931Z,1019.07
2019-01-19T02:05:46.893Z,1019.09
2019-01-19T02:06:46.854Z,1019.06
2019-01-19T02:07:46.815Z,1019.06
2019-01-19T02:08:46.778Z,1019.05
2019-01-19T02:09:46.740Z,1019.08
2019-01-19T02:10:46.699Z,1019.08
2019-01-19T02:11:46.661Z,1019.06
2019-01-19T02:12:46.623Z,1019.02
2019-01-19T02:13:46.584Z,1019.04
2019-01-19T02:14:46.545Z,1019.06
2019-01-19T02:15:46.508Z,1019.03
2019-01-19T02:16:46.469Z,1019.03
2019-01-19T02:17:46.432Z,1019.04
2019-01-19T02:18:46.392Z,1019.06
2019-01-19T02:19:46.356Z,1019.03
2019-01-19T02:20:46.315Z,1019.03
2019-01-19T02:21:46.279Z,1019.01
2019-01-19T02:22:46.238Z,1019.07
2019-01-19T02:23:46.200Z,1019.04
2019-01-19T02:24:46.161Z,1019.02
2019-01-19T02:25:46.124Z,1019.03
2019-01-19T02:26:46.084Z,1019.01
2019-01-19T02:27:46.045Z,1019.01
2019-01-19T02:28:46.008Z,1019.02
2019-01-19T02:29:45.970Z,1018.99
2019-01-19T02:30:45.930Z,1019.00
2019-01-19T02:31:45.894Z,1019.00
2019-01-19T02:32:45.889Z,1018.99
2019-01-19T02:33:45.815Z,1018.97
2019-01-19T02:34:45.777Z,1018.97
2019-01-19T02:35:48.651Z,1018.95
2019-01-19T02:36:45.706Z,1018.98
2019-01-19T02:37:45.661Z,1018.98
2019-01-19T02:38:45.632Z,1018.97
2019-01-19T02:39:45.583Z,1018.99
2019-01-19T02:40:45.547Z,1018.96
2019-01-19T02:41:45.505Z,1018.98
2019-01-19T02:42:45.468Z,1018.99
2019-01-19T02:43:45.429Z,1018.96
2019-01-19T02:44:45.390Z,1018.99
2019-01-19T02:45:45.351Z,1018.99
2019-01-19T02:46:45.314Z,1018.97
2019-01-19T02:47:45.273Z,1018.99
2019-01-19T02:48:45.236Z,1018.96
2019-01-19T02:49:45.200Z,1018.96
2019-01-19T02:50:45.162Z,1018.97
2019-01-19T02:51:45.119Z,1018.99
2019-01-19T02:52:45.080Z,1018.98
2019-01-19T02:53:45.042Z,1018.99
2019-01-19T02:54:45.005Z,1018.95
2019-01-19T02:55:44.964Z,1019.02
2019-01-19T02:56:44.946Z,1019.02
2019-01-19T02:57:44.890Z,1019.01
2019-01-19T02:58:44.848Z,1019.02
2019-01-19T02:59:44.809Z,1019.02
2019-01-19T03:00:44.869Z,1018.99
2019-01-19T03:01:44.732Z,1019.01
2019-01-19T03:02:44.693Z,1018.98
2019-01-19T03:03:44.654Z,1019.01
2019-01-19T03:04:44.616Z,1019.02
2019-01-19T03:05:44.577Z,1019.01
2019-01-19T03:06:44.537Z,1019.01
2019-01-19T03:07:44.501Z,1018.94
2019-01-19T03:08:44.464Z,1018.95
2019-01-19T03:09:44.425Z,1018.95
2019-01-19T03:10:44.382Z,1018.93
2019-01-19T03:11:44.345Z,1018.94
2019-01-19T03:12:44.307Z,1018.91
2019-01-19T03:13:44.267Z,1018.92
2019-01-19T03:14:44.228Z,1018.94
2019-01-19T03:15:44.189Z,1019.00
2019-01-19T03:16:44.151Z,1018.98
2019-01-19T03:17:44.112Z,1019.00
2019-01-19T03:18:44.071Z,1018.97
2019-01-19T03:19:44.035Z,1018.95
2019-01-19T03:20:43.996Z,1018.90
2019-01-19T03:21:43.956Z,1018.91
2019-01-19T03:22:43.918Z,1018.89
2019-01-19T03:23:43.879Z,1018.93
2019-01-19T03:24:43.842Z,1018.93
2019-01-19T03:25:43.802Z,1018.92
2019-01-19T03:26:43.761Z,1018.93
2019-01-19T03:27:43.723Z,1018.91
2019-01-19T03:28:43.685Z,1018.89
2019-01-19T03:29:43.649Z,1018.91
2019-01-19T03:30:43.611Z,1018.89
2019-01-19T03:31:43.569Z,1018.87
2019-01-19T03:32:43.532Z,1018.88
2019-01-19T03:33:43.491Z,1018.88
2019-01-19T03:34:43.451Z,1018.88
2019-01-19T03:35:43.413Z,1018.89
2019-01-19T03:36:43.375Z,1018.91
2019-01-19T03:37:43.337Z,1018.88
2019-01-19T03:38:43.297Z,1018.92
2019-01-19T03:39:43.256Z,1018.84
2019-01-19T03:40:43.220Z,1018.84
2019-01-19T03:41:43.180Z,1018.90
2019-01-19T03:42:43.141Z,1018.90
2019-01-19T03:43:43.103Z,1018.90
2019-01-19T03:44:43.066Z,1018.90
2019-01-19T03:45:43.031Z,1018.93
2019-01-19T03:46:42.988Z,1018.91
2019-01-19T03:47:42.946Z,1018.93
2019-01-19T03:48:42.908Z,1018.92
2019-01-19T03:49:42.871Z,1018.92
2019-01-19T03:50:42.832Z,1018.93
2019-01-19T03:51:42.791Z,1019.00
2019-01-19T03:52:42.753Z,1018.98
2019-01-19T03:53:42.917Z,1018.97
2019-01-19T03:54:42.675Z,1018.96
2019-01-19T03:55:42.635Z,1018.99
2019-01-19T03:56:42.598Z,1019.02
2019-01-19T03:57:42.558Z,1019.03
2019-01-19T03:58:42.519Z,1019.04
2019-01-19T03:59:42.480Z,1019.05
2019-01-19T04:00:42.442Z,1019.05
2019-01-19T04:01:42.402Z,1019.05
2019-01-19T04:02:42.363Z,1019.06
2019-01-19T04:03:42.326Z,1019.07
2019-01-19T04:04:42.288Z,1019.07
2019-01-19T04:05:42.247Z,1019.10
2019-01-19T04:06:42.207Z,1019.12
2019-01-19T04:07:42.170Z,1019.10
2019-01-19T04:08:42.130Z,1019.08
2019-01-19T04:09:42.092Z,1019.09
2019-01-19T04:10:42.051Z,1019.12
2019-01-19T04:11:42.014Z,1019.10
2019-01-19T04:12:41.978Z,1019.10
2019-01-19T04:13:41.934Z,1019.12
2019-01-19T04:14:41.896Z,1019.12
2019-01-19T04:15:41.856Z,1019.14
2019-01-19T04:16:41.818Z,1019.12
2019-01-19T04:17:41.779Z,1019.10
2019-01-19T04:18:41.738Z,1019.09
2019-01-19T04:19:41.702Z,1019.09
2019-01-19T04:20:41.663Z,1019.11
2019-01-19T04:21:41.626Z,1019.08
2019-01-19T04:22:41.585Z,1019.14
2019-01-19T04:23:41.545Z,1019.10
2019-01-19T04:24:41.510Z,1019.13
2019-01-19T04:25:41.470Z,1019.10
2019-01-19T04:26:41.429Z,1019.11
2019-01-19T04:27:41.387Z,1019.12
2019-01-19T04:28:41.353Z,1019.13
2019-01-19T04:29:41.312Z,1019.16
2019-01-19T04:30:41.271Z,1019.08
2019-01-19T04:31:41.235Z,1019.11
2019-01-19T04:32:41.194Z,1019.13
2019-01-19T04:33:41.155Z,1019.13
2019-01-19T04:34:41.121Z,1019.11
2019-01-19T04:35:41.091Z,1019.08
2019-01-19T04:36:41.037Z,1019.07
2019-01-19T04:37:40.999Z,1019.11
2019-01-19T04:38:40.958Z,1019.06
2019-01-19T04:39:40.920Z,1019.02
2019-01-19T04:40:40.881Z,1019.01
2019-01-19T04:41:40.843Z,1019.01
2019-01-19T04:42:40.804Z,1019.00
2019-01-19T04:43:40.764Z,1019.01
2019-01-19T04:44:40.730Z,1019.03
2019-01-19T04:45:40.686Z,1019.01
2019-01-19T04:46:40.648Z,1019.01
2019-01-19T04:47:40.609Z,1019.02
2019-01-19T04:48:40.578Z,1019.02
2019-01-19T04:49:40.528Z,1018.96
2019-01-19T04:50:40.489Z,1019.00
2019-01-19T04:51:40.450Z,1018.97
2019-01-19T04:52:40.411Z,1018.98
2019-01-19T04:53:40.387Z,1018.96
2019-01-19T04:54:40.339Z,1018.98
2019-01-19T04:55:40.295Z,1018.95
2019-01-19T04:56:40.254Z,1018.96
2019-01-19T04:57:40.221Z,1018.98
2019-01-19T04:58:40.176Z,1018.93
2019-01-19T04:59:40.138Z,1018.99
2019-01-19T05:00:40.097Z,1018.98
2019-01-19T05:01:40.057Z,1018.95
2019-01-19T05:02:40.019Z,1018.94
2019-01-19T05:03:39.980Z,1018.94
2019-01-19T05:04:39.941Z,1018.92
2019-01-19T05:05:39.900Z,1018.93
2019-01-19T05:06:39.862Z,1018.89
2019-01-19T05:07:39.822Z,1018.91
2019-01-19T05:08:39.785Z,1018.87
2019-01-19T05:09:39.745Z,1018.87
2019-01-19T05:10:39.709Z,1018.85
2019-01-19T05:11:39.668Z,1018.85
2019-01-19T05:12:39.629Z,1018.87
2019-01-19T05:13:39.586Z,1018.80
2019-01-19T05:14:39.547Z,1018.81
2019-01-19T05:15:39.507Z,1018.78
2019-01-19T05:16:39.469Z,1018.80
2019-01-19T05:17:39.431Z,1018.80
2019-01-19T05:18:39.389Z,1018.76
2019-01-19T05:19:39.349Z,1018.78
2019-01-19T05:20:39.310Z,1018.79
2019-01-19T05:21:39.274Z,1018.81
2019-01-19T05:22:39.231Z,1018.81
2019-01-19T05:23:39.191Z,1018.80
2019-01-19T05:24:39.153Z,1018.85
2019-01-19T05:25:39.118Z,1018.80
2019-01-19T05:26:39.140Z,1018.82
2019-01-19T05:27:39.035Z,1018.81
2019-01-19T05:28:39.000Z,1018.80
2019-01-19T05:29:38.967Z,1018.79
2019-01-19T05:30:38.931Z,1018.81
2019-01-19T05:31:38.877Z,1018.82
2019-01-19T05:32:38.839Z,1018.80
2019-01-19T05:33:38.799Z,1018.81
2019-01-19T05:34:38.759Z,1018.80
2019-01-19T05:35:38.720Z,1018.81
2019-01-19T05:36:38.775Z,1018.82
2019-01-19T05:37:38.640Z,1018.80
2019-01-19T05:38:38.603Z,1018.78
2019-01-19T05:39:38.562Z,1018.83
2019-01-19T05:40:38.522Z,1018.79
2019-01-19T05:41:38.535Z,1018.79
2019-01-19T05:42:38.454Z,1018.81
2019-01-19T05:43:38.403Z,1018.78
2019-01-19T05:44:38.364Z,1018.78
2019-01-19T05:45:38.325Z,1018.78
2019-01-19T05:46:38.284Z,1018.80
2019-01-19T05:47:38.247Z,1018.80
2019-01-19T05:48:38.207Z,1018.81
2019-01-19T05:49:38.167Z,1018.82
2019-01-19T05:50:38.127Z,1018.82
2019-01-19T05:51:38.087Z,1018.82
2019-01-19T05:52:38.049Z,1018.81
2019-01-19T05:53:38.008Z,1018.87
2019-01-19T05:54:37.969Z,1018.80
2019-01-19T05:55:37.929Z,1018.81
2019-01-19T05:56:37.891Z,1018.83
2019-01-19T05:57:37.855Z,1018.87
2019-01-19T05:58:37.812Z,1018.87
2019-01-19T05:59:37.772Z,1018.82
2019-01-19T06:00:37.734Z,1018.84
2019-01-19T06:01:37.694Z,1018.82
2019-01-19T06:02:37.651Z,1018.84
2019-01-19T06:03:37.614Z,1018.84
2019-01-19T06:04:37.574Z,1018.83
2019-01-19T06:05:37.535Z,1018.83
2019-01-19T06:06:37.495Z,1018.84
2019-01-19T06:07:37.454Z,1018.86
2019-01-19T06:08:37.415Z,1018.85
2019-01-19T06:09:37.377Z,1018.83
2019-01-19T06:10:37.345Z,1018.87
2019-01-19T06:11:37.296Z,1018.87
2019-01-19T06:12:37.257Z,1018.88
2019-01-19T06:13:37.218Z,1018.87
2019-01-19T06:14:37.178Z,1018.86
2019-01-19T06:15:37.139Z,1018.84
2019-01-19T06:16:37.098Z,1018.87
2019-01-19T06:17:37.059Z,1018.86
2019-01-19T06:18:37.018Z,1018.85
2019-01-19T06:19:36.979Z,1018.84
2019-01-19T06:20:36.940Z,1018.88
2019-01-19T06:21:36.905Z,1018.85
2019-01-19T06:22:36.859Z,1018.89
2019-01-19T06:23:36.821Z,1018.89
2019-01-19T06:24:36.781Z,1018.88
2019-01-19T06:25:36.743Z,1018.92
2019-01-19T06:26:36.702Z,1018.90
2019-01-19T06:27:36.662Z,1018.87
2019-01-19T06:28:36.623Z,1018.87
2019-01-19T06:29:36.585Z,1018.90
2019-01-19T06:30:36.542Z,1018.88
2019-01-19T06:31:36.503Z,1018.88
2019-01-19T06:32:36.466Z,1018.86
2019-01-19T06:33:36.425Z,1018.93
2019-01-19T06:34:36.383Z,1018.95
2019-01-19T06:35:36.344Z,1018.91
2019-01-19T06:36:36.311Z,1018.97
2019-01-19T06:37:36.267Z,1018.91
2019-01-19T06:38:36.232Z,1018.92
2019-01-19T06:39:36.186Z,1018.92
2019-01-19T06:40:36.145Z,1018.94
2019-01-19T06:41:36.107Z,1018.87
2019-01-19T06:42:36.071Z,1018.89
2019-01-19T06:43:36.026Z,1018.88
2019-01-19T06:44:35.987Z,1018.92
2019-01-19T06:45:35.949Z,1018.87
2019-01-19T06:46:35.906Z,1018.85
2019-01-19T06:47:35.868Z,1018.88
2019-01-19T06:48:35.828Z,1018.92
2019-01-19T06:49:35.788Z,1018.90
2019-01-19T06:50:35.748Z,1018.85
2019-01-19T06:51:35.710Z,1018.88
2019-01-19T06:52:35.669Z,1018.89
2019-01-19T06:53:35.629Z,1018.96
2019-01-19T06:54:35.588Z,1018.92
2019-01-19T06:55:35.553Z,1018.92
2019-01-19T06:56:35.510Z,1018.93
2019-01-19T06:57:35.471Z,1018.92
2019-01-19T06:58:35.429Z,1018.92
2019-01-19T06:59:35.390Z,1018.90
2019-01-19T07:00:35.401Z,1018.96
2019-01-19T07:01:35.311Z,1018.95
2019-01-19T07:02:35.270Z,1018.98
2019-01-19T07:03:35.233Z,1018.98
2019-01-19T07:04:35.191Z,1018.98
2019-01-19T07:05:35.152Z,1018.95
2019-01-19T07:06:35.111Z,1019.00
2019-01-19T07:07:35.072Z,1019.00
2019-01-19T07:08:35.033Z,1018.99
2019-01-19T07:09:34.993Z,1018.99
2019-01-19T07:10:34.952Z,1019.04
2019-01-19T07:11:34.912Z,1019.01
2019-01-19T07:12:34.872Z,1019.08
2019-01-19T07:13:34.833Z,1019.10
2019-01-19T07:14:34.793Z,1019.08
2019-01-19T07:15:34.756Z,1019.12
2019-01-19T07:16:34.713Z,1019.08
2019-01-19T07:17:34.673Z,1019.08
2019-01-19T07:18:34.633Z,1019.10
2019-01-19T07:19:34.593Z,1019.06
2019-01-19T07:20:34.555Z,1019.08
2019-01-19T07:21:34.521Z,1019.05
2019-01-19T07:22:34.475Z,1019.06
2019-01-19T07:23:34.433Z,1019.05
2019-01-19T07:24:34.394Z,1019.06
2019-01-19T07:25:34.355Z,1019.08
2019-01-19T07:26:34.315Z,1019.06
2019-01-19T07:27:34.275Z,1019.08
2019-01-19T07:28:34.236Z,1019.12
2019-01-19T07:29:34.195Z,1019.11
2019-01-19T07:30:34.155Z,1019.13
2019-01-19T07:31:34.117Z,1019.14
2019-01-19T07:32:34.079Z,1019.12
2019-01-19T07:33:34.036Z,1019.13
2019-01-19T07:34:33.996Z,1019.15
2019-01-19T07:35:33.957Z,1019.16
2019-01-19T07:36:33.917Z,1019.18
2019-01-19T07:37:33.877Z,1019.17
2019-01-19T07:38:33.837Z,1019.23
2019-01-19T07:39:33.797Z,1019.18
2019-01-19T07:40:33.757Z,1019.21
2019-01-19T07:41:33.720Z,1019.24
2019-01-19T07:42:34.045Z,1019.26
2019-01-19T07:43:33.640Z,1019.26
2019-01-19T07:44:33.599Z,1019.31
2019-01-19T07:45:33.563Z,1019.32
2019-01-19T07:46:33.518Z,1019.31
2019-01-19T07:47:33.479Z,1019.33
2019-01-19T07:48:33.441Z,1019.36
2019-01-19T07:49:33.399Z,1019.33
2019-01-19T07:50:33.358Z,1019.34
2019-01-19T07:51:33.322Z,1019.37
2019-01-19T07:52:33.280Z,1019.37
2019-01-19T07:53:33.240Z,1019.37
2019-01-19T07:54:33.199Z,1019.38
2019-01-19T07:55:33.164Z,1019.40
2019-01-19T07:56:33.121Z,1019.43
2019-01-19T07:57:33.082Z,1019.45
2019-01-19T07:58:33.043Z,1019.47
2019-01-19T07:59:33.002Z,1019.48
2019-01-19T08:00:32.964Z,1019.48
2019-01-19T08:01:32.924Z,1019.47
2019-01-19T08:02:32.883Z,1019.45
2019-01-19T08:03:32.846Z,1019.48
2019-01-19T08:04:32.805Z,1019.40
2019-01-19T08:05:32.766Z,1019.44
2019-01-19T08:06:32.726Z,1019.45
2019-01-19T08:07:32.687Z,1019.46
2019-01-19T08:08:32.649Z,1019.46
2019-01-19T08:09:32.608Z,1019.52
2019-01-19T08:10:32.568Z,1019.49
2019-01-19T08:11:32.528Z,1019.49
2019-01-19T08:12:32.489Z,1019.50
2019-01-19T08:13:32.450Z,1019.52
2019-01-19T08:14:32.410Z,1019.52
2019-01-19T08:15:32.371Z,1019.53
2019-01-19T08:16:32.332Z,1019.53
2019-01-19T08:17:32.292Z,1019.51
2019-01-19T08:18:32.253Z,1019.54
2019-01-19T08:19:32.216Z,1019.53
2019-01-19T08:20:32.176Z,1019.53
2019-01-19T08:21:32.137Z,1019.54
2019-01-19T08:22:32.098Z,1019.55
2019-01-19T08:23:32.058Z,1019.51
2019-01-19T08:24:32.021Z,1019.56
2019-01-19T08:25:31.989Z,1019.57
2019-01-19T08:26:31.941Z,1019.53
2019-01-19T08:27:31.904Z,1019.57
2019-01-19T08:28:31.867Z,1019.55
2019-01-19T08:29:31.828Z,1019.59
2019-01-19T08:30:31.789Z,1019.58
2019-01-19T08:31:31.750Z,1019.60
2019-01-19T08:32:31.715Z,1019.60
2019-01-19T08:33:31.675Z,1019.59
2019-01-19T08:34:31.635Z,1019.56
2019-01-19T08:35:31.601Z,1019.57
2019-01-19T08:36:31.561Z,1019.59
2019-01-19T08:37:31.522Z,1019.57
2019-01-19T08:38:31.483Z,1019.61
2019-01-19T08:39:31.447Z,1019.60
2019-01-19T08:40:31.408Z,1019.61
2019-01-19T08:41:31.371Z,1019.62
2019-01-19T08:42:31.332Z,1019.65
2019-01-19T08:43:31.295Z,1019.66
2019-01-19T08:44:31.260Z,1019.66
2019-01-19T08:45:31.223Z,1019.67
2019-01-19T08:46:31.185Z,1019.66
2019-01-19T08:47:31.149Z,1019.66
2019-01-19T08:48:31.112Z,1019.63
2019-01-19T08:49:31.075Z,1019.64
2019-01-19T08:50:31.038Z,1019.65
2019-01-19T08:51:31.002Z,1019.67
2019-01-19T08:52:30.966Z,1019.72
2019-01-19T08:53:30.929Z,1019.65
2019-01-19T08:54:30.892Z,1019.69
2019-01-19T08:55:30.857Z,1019.74
2019-01-19T08:56:30.819Z,1019.72
2019-01-19T08:57:30.785Z,1019.72
2019-01-19T08:58:30.747Z,1019.70
2019-01-19T08:59:30.712Z,1019.68
2019-01-19T09:00:30.677Z,1019.70
2019-01-19T09:01:30.642Z,1019.71
2019-01-19T09:02:30.605Z,1019.73
2019-01-19T09:03:30.571Z,1019.70
2019-01-19T09:04:30.537Z,1019.74
2019-01-19T09:05:30.561Z,1019.73
2019-01-19T09:06:30.463Z,1019.73
2019-01-19T09:07:33.923Z,1019.76
2019-01-19T09:08:30.393Z,1019.77
2019-01-19T09:09:30.360Z,1019.81
2019-01-19T09:10:30.325Z,1019.77
2019-01-19T09:11:30.289Z,1019.75
2019-01-19T09:12:30.253Z,1019.79
2019-01-19T09:13:30.218Z,1019.78
2019-01-19T09:14:30.182Z,1019.75
2019-01-19T09:15:30.150Z,1019.77
2019-01-19T09:16:30.113Z,1019.71
2019-01-19T09:17:30.078Z,1019.77
2019-01-19T09:18:30.043Z,1019.75
2019-01-19T09:19:30.014Z,1019.74
2019-01-19T09:20:29.973Z,1019.76
2019-01-19T09:21:29.938Z,1019.79
2019-01-19T09:22:29.904Z,1019.76
2019-01-19T09:23:29.867Z,1019.76
2019-01-19T09:24:29.835Z,1019.80
2019-01-19T09:25:29.819Z,1019.79
2019-01-19T09:26:29.765Z,1019.80
2019-01-19T09:27:29.730Z,1019.84
2019-01-19T09:28:29.693Z,1019.81
2019-01-19T09:29:29.660Z,1019.83
2019-01-19T09:30:29.625Z,1019.78
2019-01-19T09:31:29.591Z,1019.82
2019-01-19T09:32:29.557Z,1019.79
2019-01-19T09:33:29.523Z,1019.78
2019-01-19T09:34:29.487Z,1019.80
2019-01-19T09:35:29.453Z,1019.82
2019-01-19T09:36:29.420Z,1019.80
2019-01-19T09:37:29.388Z,1019.85
2019-01-19T09:38:29.349Z,1019.86
2019-01-19T09:39:29.317Z,1019.88
2019-01-19T09:40:29.281Z,1019.89
2019-01-19T09:41:29.248Z,1019.89
2019-01-19T09:42:29.212Z,1019.86
2019-01-19T09:43:29.178Z,1019.81
2019-01-19T09:44:29.144Z,1019.83
2019-01-19T09:45:29.110Z,1019.83
2019-01-19T09:46:29.076Z,1019.86
2019-01-19T09:47:29.042Z,1019.83
2019-01-19T09:48:29.007Z,1019.84
2019-01-19T09:49:28.979Z,1019.84
2019-01-19T09:50:28.939Z,1019.80
2019-01-19T09:51:28.908Z,1019.80
2019-01-19T09:52:28.870Z,1019.83
2019-01-19T09:53:28.839Z,1019.81
2019-01-19T09:54:28.805Z,1019.85
2019-01-19T09:55:28.770Z,1019.85
2019-01-19T09:56:28.737Z,1019.85
2019-01-19T09:57:28.705Z,1019.86
2019-01-19T09:58:28.669Z,1019.91
2019-01-19T09:59:28.635Z,1019.91
2019-01-19T10:00:35.534Z,1019.88
2019-01-19T10:01:28.569Z,1019.88
2019-01-19T10:02:28.535Z,1019.87
2019-01-19T10:03:28.502Z,1019.86
2019-01-19T10:04:28.469Z,1019.83
2019-01-19T10:05:28.434Z,1019.87
2019-01-19T10:06:28.401Z,1019.83
2019-01-19T10:07:28.366Z,1019.84
2019-01-19T10:08:28.335Z,1019.80
2019-01-19T10:09:28.300Z,1019.82
2019-01-19T10:10:28.270Z,1019.80
2019-01-19T10:11:28.233Z,1019.86
2019-01-19T10:12:28.201Z,1019.83
2019-01-19T10:13:28.167Z,1019.85
2019-01-19T10:14:28.133Z,1019.78
2019-01-19T10:15:28.101Z,1019.82
2019-01-19T10:16:28.068Z,1019.81
2019-01-19T10:17:28.286Z,1019.83
2019-01-19T10:18:28.001Z,1019.80
2019-01-19T10:19:27.970Z,1019.81
2019-01-19T10:20:27.934Z,1019.83
2019-01-19T10:21:27.902Z,1019.82
2019-01-19T10:22:27.869Z,1019.79
2019-01-19T10:23:27.836Z,1019.79
2019-01-19T10:24:27.802Z,1019.75
2019-01-19T10:25:27.768Z,1019.76
2019-01-19T10:26:27.735Z,1019.81
2019-01-19T10:27:27.702Z,1019.74
2019-01-19T10:28:27.670Z,1019.75
2019-01-19T10:29:27.635Z,1019.79
2019-01-19T10:30:27.602Z,1019.74
2019-01-19T10:31:27.570Z,1019.74
2019-01-19T10:32:27.537Z,1019.73
2019-01-19T10:33:27.504Z,1019.69
2019-01-19T10:34:27.471Z,1019.72
2019-01-19T10:35:27.442Z,1019.70
2019-01-19T10:36:27.412Z,1019.67
2019-01-19T10:37:27.372Z,1019.71
2019-01-19T10:38:27.339Z,1019.68
2019-01-19T10:39:27.305Z,1019.65
2019-01-19T10:40:27.275Z,1019.67
2019-01-19T10:41:27.238Z,1019.65
2019-01-19T10:42:27.205Z,1019.65
2019-01-19T10:43:27.173Z,1019.61
2019-01-19T10:44:27.143Z,1019.64
2019-01-19T10:45:27.113Z,1019.63
2019-01-19T10:46:27.076Z,1019.61
2019-01-19T10:47:27.040Z,1019.63
2019-01-19T10:48:27.007Z,1019.63
2019-01-19T10:49:26.976Z,1019.62
2019-01-19T10:50:26.942Z,1019.63
2019-01-19T10:51:26.908Z,1019.63
2019-01-19T10:52:26.875Z,1019.63
2019-01-19T10:53:26.844Z,1019.60
2019-01-19T10:54:26.809Z,1019.64
2019-01-19T10:55:26.776Z,1019.59
2019-01-19T10:56:26.744Z,1019.59
2019-01-19T10:57:26.711Z,1019.57
2019-01-19T10:58:26.678Z,1019.56
2019-01-19T10:59:26.648Z,1019.55
2019-01-19T11:00:26.612Z,1019.56
2019-01-19T11:01:26.580Z,1019.54
2019-01-19T11:02:26.549Z,1019.55
2019-01-19T11:03:26.513Z,1019.56
2019-01-19T11:04:26.482Z,1019.52
2019-01-19T11:05:26.448Z,1019.50
2019-01-19T11:06:26.415Z,1019.52
2019-01-19T11:07:26.385Z,1019.48
2019-01-19T11:08:26.405Z,1019.47
2019-01-19T11:09:26.317Z,1019.46
2019-01-19T11:10:26.284Z,1019.45
2019-01-19T11:11:26.252Z,1019.41
2019-01-19T11:12:26.219Z,1019.42
2019-01-19T11:13:26.185Z,1019.41
2019-01-19T11:14:26.152Z,1019.42
2019-01-19T11:15:26.119Z,1019.39
2019-01-19T11:16:26.088Z,1019.40
2019-01-19T11:17:26.053Z,1019.36
2019-01-19T11:18:26.021Z,1019.39
2019-01-19T11:19:25.988Z,1019.41
2019-01-19T11:20:25.957Z,1019.38
2019-01-19T11:21:25.923Z,1019.34
2019-01-19T11:22:25.888Z,1019.37
2019-01-19T11:23:25.857Z,1019.36
2019-01-19T11:24:25.827Z,1019.33
2019-01-19T11:25:25.792Z,1019.32
2019-01-19T11:26:25.757Z,1019.40
2019-01-19T11:27:25.725Z,1019.40
2019-01-19T11:28:25.691Z,1019.39
2019-01-19T11:29:25.662Z,1019.33
2019-01-19T11:30:25.627Z,1019.34
2019-01-19T11:31:25.592Z,1019.36
2019-01-19T11:32:25.561Z,1019.34
2019-01-19T11:33:25.526Z,1019.28
2019-01-19T11:34:25.494Z,1019.29
2019-01-19T11:35:25.459Z,1019.29
2019-01-19T11:36:25.427Z,1019.30
2019-01-19T11:37:25.395Z,1019.30
2019-01-19T11:38:25.363Z,1019.26
2019-01-19T11:39:25.327Z,1019.26
2019-01-19T11:40:25.331Z,1019.27
2019-01-19T11:41:25.261Z,1019.23
2019-01-19T11:42:25.226Z,1019.25
2019-01-19T11:43:25.195Z,1019.20
2019-01-19T11:44:25.163Z,1019.16
2019-01-19T11:45:25.128Z,1019.20
2019-01-19T11:46:25.091Z,1019.17
2019-01-19T11:47:25.063Z,1019.17
2019-01-19T11:48:25.028Z,1019.18
2019-01-19T11:49:24.994Z,1019.18
2019-01-19T11:50:24.961Z,1019.13
2019-01-19T11:51:24.926Z,1019.14
2019-01-19T11:52:24.893Z,1019.12
2019-01-19T11:53:24.860Z,1019.10
2019-01-19T11:54:24.827Z,1019.14
2019-01-19T11:55:24.794Z,1019.11
2019-01-19T11:56:24.760Z,1019.12
2019-01-19T11:57:24.726Z,1019.11
2019-01-19T11:58:24.691Z,1019.09
2019-01-19T11:59:24.658Z,1019.06
2019-01-19T12:00:24.624Z,1019.07
2019-01-19T12:01:24.593Z,1019.06
2019-01-19T12:02:24.555Z,1019.04
2019-01-19T12:03:24.523Z,1019.05
2019-01-19T12:04:24.489Z,1019.04
2019-01-19T12:05:24.455Z,1019.03